createdAt,value
2023-05-09T00:01:12.957Z,15.98
2023-05-09T00:03:45.230Z,16.42
2023-05-09T00:06:19.549Z,15.10
2023-05-09T00:08:52.470Z,16.75
2023-05-09T00:11:25.456Z,15.27
2023-05-09T00:13:58.617Z,16.83
2023-05-09T00:16:33.058Z,15.60
2023-05-09T00:19:05.430Z,16.42
2023-05-09T00:21:38.011Z,16.40
2023-05-09T00:24:10.049Z,16.83
2023-05-09T00:26:42.124Z,17.65
2023-05-09T00:29:14.241Z,16.33
2023-05-09T00:31:46.335Z,16.52
2023-05-09T00:34:18.427Z,18.70
2023-05-09T00:36:50.700Z,16.70
2023-05-09T00:39:23.062Z,17.58
2023-05-09T00:41:57.228Z,17.55
2023-05-09T00:44:29.530Z,16.45
2023-05-09T00:47:01.680Z,17.55
2023-05-09T00:49:34.204Z,17.05
2023-05-09T00:52:06.400Z,21.80
2023-05-09T00:54:38.609Z,18.73
2023-05-09T00:57:10.782Z,19.95
2023-05-09T00:59:42.983Z,22.95
2023-05-09T01:02:17.266Z,19.77
2023-05-09T01:04:49.834Z,21.23
2023-05-09T01:07:39.225Z,21.00
2023-05-09T01:10:30.982Z,18.50
2023-05-09T01:13:32.280Z,20.33
2023-05-09T01:16:37.041Z,18.73
2023-05-09T01:19:36.617Z,19.70
2023-05-09T01:22:32.052Z,19.60
2023-05-09T01:25:24.332Z,19.70
2023-05-09T01:28:13.800Z,19.60
2023-05-09T01:31:08.497Z,20.55
2023-05-09T01:33:44.829Z,21.05
2023-05-09T01:36:21.675Z,20.15
2023-05-09T01:38:54.853Z,20.92
2023-05-09T01:41:31.896Z,20.90
2023-05-09T01:44:12.293Z,22.13
2023-05-09T01:46:45.918Z,19.67
2023-05-09T01:49:19.098Z,18.05
2023-05-09T01:51:54.689Z,19.55
2023-05-09T01:54:28.714Z,19.42
2023-05-09T01:57:03.553Z,19.48
2023-05-09T01:59:41.649Z,19.95
2023-05-09T02:02:15.705Z,19.52
2023-05-09T02:04:48.920Z,19.85
2023-05-09T02:07:23.053Z,19.85
2023-05-09T02:09:56.723Z,19.67
2023-05-09T02:12:29.034Z,19.13
2023-05-09T02:15:01.496Z,20.23
2023-05-09T02:17:33.837Z,20.40
2023-05-09T02:20:06.966Z,20.35
2023-05-09T02:22:43.217Z,20.30
2023-05-09T02:25:16.233Z,20.63
2023-05-09T02:27:50.707Z,21.20
2023-05-09T02:30:25.995Z,19.40
2023-05-09T02:33:07.106Z,20.60
2023-05-09T02:35:44.053Z,20.60
2023-05-09T02:38:17.824Z,21.63
2023-05-09T02:40:52.388Z,19.33
2023-05-09T02:43:24.804Z,20.50
2023-05-09T02:45:56.942Z,20.08
2023-05-09T02:48:29.176Z,21.50
2023-05-09T02:51:01.575Z,23.10
2023-05-09T02:53:33.707Z,24.05
2023-05-09T02:56:05.906Z,25.50
2023-05-09T02:58:38.412Z,24.30
2023-05-09T03:01:10.667Z,25.17
2023-05-09T03:03:42.896Z,24.73
2023-05-09T03:06:14.998Z,25.63
2023-05-09T03:08:46.965Z,25.10
2023-05-09T03:11:18.989Z,24.55
2023-05-09T03:13:51.194Z,26.00
2023-05-09T03:16:23.396Z,27.15
2023-05-09T03:18:55.724Z,27.05
2023-05-09T03:21:27.919Z,27.55
2023-05-09T03:24:00.264Z,26.42
2023-05-09T03:26:32.804Z,27.70
2023-05-09T03:29:06.606Z,28.35
2023-05-09T03:31:38.733Z,27.80
2023-05-09T03:34:15.118Z,26.77
2023-05-09T03:36:47.427Z,25.48
2023-05-09T03:39:19.394Z,26.85
2023-05-09T03:41:51.623Z,26.70
2023-05-09T03:44:24.234Z,26.65
2023-05-09T03:46:56.619Z,27.35
2023-05-09T03:49:28.640Z,25.67
2023-05-09T03:52:00.721Z,25.35
2023-05-09T03:54:33.860Z,25.70
2023-05-09T03:57:07.148Z,25.30
2023-05-09T03:59:39.177Z,26.02
2023-05-09T04:02:11.613Z,25.48
2023-05-09T04:04:43.694Z,26.25
2023-05-09T04:07:17.468Z,25.30
2023-05-09T04:09:50.284Z,23.45
2023-05-09T04:12:22.766Z,23.40
2023-05-09T04:14:54.835Z,24.75
2023-05-09T04:17:27.133Z,23.48
2023-05-09T04:19:59.164Z,24.33
2023-05-09T04:22:31.977Z,24.30
2023-05-09T04:25:04.720Z,25.33
2023-05-09T04:27:38.930Z,25.90
2023-05-09T04:30:11.974Z,24.65
2023-05-09T04:32:46.043Z,24.67
2023-05-09T04:35:20.566Z,25.73
2023-05-09T04:37:53.171Z,24.45
2023-05-09T04:40:26.868Z,25.13
2023-05-09T04:42:59.736Z,24.50
2023-05-09T04:45:32.074Z,25.83
2023-05-09T04:48:04.687Z,25.70
2023-05-09T04:50:36.948Z,24.73
2023-05-09T04:53:09.235Z,28.08
2023-05-09T04:55:41.914Z,29.73
2023-05-09T04:58:14.063Z,27.70
2023-05-09T05:00:46.712Z,28.80
2023-05-09T05:03:19.223Z,27.13
2023-05-09T05:05:51.505Z,28.30
2023-05-09T05:08:23.758Z,28.05
2023-05-09T05:10:56.064Z,27.33
2023-05-09T05:13:28.428Z,26.88
2023-05-09T05:16:00.609Z,28.33
2023-05-09T05:18:32.750Z,27.90
2023-05-09T05:21:04.833Z,27.30
2023-05-09T05:23:37.001Z,28.70
2023-05-09T05:26:09.040Z,30.25
2023-05-09T05:28:41.271Z,28.17
2023-05-09T05:31:13.514Z,27.83
2023-05-09T05:33:45.520Z,29.33
2023-05-09T05:36:19.349Z,29.65
2023-05-09T05:38:51.637Z,26.98
2023-05-09T05:41:23.946Z,28.40
2023-05-09T05:43:57.003Z,27.55
2023-05-09T05:46:29.076Z,28.38
2023-05-09T05:49:01.528Z,29.60
2023-05-09T05:51:35.986Z,27.83
2023-05-09T05:54:07.997Z,28.48
2023-05-09T05:56:40.094Z,26.55
2023-05-09T05:59:13.420Z,29.38
2023-05-09T06:01:46.325Z,28.00
2023-05-09T06:04:18.499Z,27.90
2023-05-09T06:06:51.431Z,27.25
2023-05-09T06:09:23.555Z,29.77
2023-05-09T06:11:56.366Z,29.58
2023-05-09T06:14:29.813Z,28.85
2023-05-09T06:17:02.034Z,28.00
2023-05-09T06:19:34.322Z,26.30
2023-05-09T06:22:06.369Z,26.48
2023-05-09T06:24:38.345Z,26.45
2023-05-09T06:27:11.062Z,26.20
2023-05-09T06:29:43.231Z,26.25
2023-05-09T06:32:15.350Z,23.90
2023-05-09T06:34:49.359Z,24.58
2023-05-09T06:37:26.057Z,24.30
2023-05-09T06:39:58.249Z,23.45
2023-05-09T06:42:32.800Z,22.50
2023-05-09T06:45:06.031Z,23.65
2023-05-09T06:47:38.655Z,23.45
2023-05-09T06:50:11.039Z,23.30
2023-05-09T06:52:43.287Z,22.42
2023-05-09T06:55:16.155Z,22.65
2023-05-09T06:57:48.534Z,20.63
2023-05-09T07:00:21.199Z,21.10
2023-05-09T07:02:53.656Z,21.20
2023-05-09T07:05:26.201Z,21.95
2023-05-09T07:07:58.576Z,21.30
2023-05-09T07:10:30.886Z,20.40
2023-05-09T07:13:03.181Z,19.80
2023-05-09T07:15:42.266Z,19.40
2023-05-09T07:18:14.960Z,19.00
2023-05-09T07:20:47.030Z,18.00
2023-05-09T07:23:19.346Z,18.93
2023-05-09T07:25:57.564Z,19.03
2023-05-09T07:28:29.929Z,17.57
2023-05-09T07:31:02.284Z,18.00
2023-05-09T07:33:34.443Z,18.40
2023-05-09T07:36:07.036Z,15.80
2023-05-09T07:38:40.650Z,17.47
2023-05-09T07:41:13.006Z,16.73
2023-05-09T07:43:45.578Z,15.77
2023-05-09T07:46:17.721Z,15.93
2023-05-09T07:48:49.950Z,16.90
2023-05-09T07:51:22.119Z,15.60
2023-05-09T07:53:56.553Z,16.60
2023-05-09T07:56:28.656Z,15.50
2023-05-09T07:59:00.869Z,14.47
2023-05-09T08:01:34.363Z,15.73
2023-05-09T08:04:09.039Z,14.90
2023-05-09T08:06:41.896Z,14.00
2023-05-09T08:09:13.969Z,13.80
2023-05-09T08:11:46.441Z,12.80
2023-05-09T08:14:18.691Z,13.47
2023-05-09T08:16:50.965Z,15.07
2023-05-09T08:19:26.114Z,13.87
2023-05-09T08:21:58.343Z,14.27
2023-05-09T08:24:32.749Z,16.30
2023-05-09T08:27:04.874Z,16.50
2023-05-09T08:29:36.969Z,15.87
2023-05-09T08:32:09.506Z,15.37
2023-05-09T08:34:41.613Z,14.70
2023-05-09T08:37:15.257Z,14.57
2023-05-09T08:39:47.646Z,15.00
2023-05-09T08:42:25.504Z,15.10
2023-05-09T08:45:00.443Z,13.70
2023-05-09T08:47:41.733Z,12.17
2023-05-09T08:50:17.474Z,13.10
2023-05-09T08:52:52.285Z,13.83
2023-05-09T08:55:25.952Z,12.20
2023-05-09T08:57:59.469Z,12.27
2023-05-09T09:00:33.676Z,13.67
2023-05-09T09:03:07.844Z,13.03
2023-05-09T09:05:43.346Z,12.70
2023-05-09T09:08:16.877Z,13.50
2023-05-09T09:10:49.611Z,12.53
2023-05-09T09:13:23.208Z,12.87
2023-05-09T09:15:58.968Z,14.00
2023-05-09T09:18:33.666Z,13.37
2023-05-09T09:21:08.754Z,13.70
2023-05-09T09:23:44.510Z,12.73
2023-05-09T09:26:18.650Z,12.47
2023-05-09T09:28:50.709Z,11.83
2023-05-09T09:31:28.528Z,12.60
2023-05-09T09:34:03.400Z,11.80
2023-05-09T09:36:38.712Z,13.03
2023-05-09T09:39:13.535Z,13.70
2023-05-09T09:41:45.950Z,15.10
2023-05-09T09:44:21.081Z,13.47
2023-05-09T09:46:56.546Z,14.33
2023-05-09T09:49:28.956Z,12.70
2023-05-09T09:52:01.068Z,12.70
2023-05-09T09:54:33.727Z,12.67
2023-05-09T09:57:05.862Z,12.93
2023-05-09T09:59:37.981Z,12.00
2023-05-09T10:02:12.336Z,12.37
2023-05-09T10:04:44.530Z,12.17
2023-05-09T10:07:19.129Z,12.80
2023-05-09T10:09:53.492Z,12.07
2023-05-09T10:12:26.000Z,10.00
2023-05-09T10:14:58.242Z,10.53
2023-05-09T10:17:32.590Z,9.33
2023-05-09T10:20:06.695Z,10.63
2023-05-09T10:22:41.011Z,10.47
2023-05-09T10:25:39.685Z,10.57
2023-05-09T10:28:32.360Z,9.70
2023-05-09T10:31:27.696Z,8.70
2023-05-09T10:34:09.941Z,9.40
2023-05-09T10:36:43.358Z,8.17
2023-05-09T10:39:17.532Z,8.63
2023-05-09T10:41:50.002Z,8.50
2023-05-09T10:44:25.179Z,10.00
2023-05-09T10:46:57.530Z,9.50
2023-05-09T10:49:30.768Z,9.20
2023-05-09T10:52:03.034Z,8.27
2023-05-09T10:54:36.917Z,8.97
2023-05-09T10:57:12.113Z,10.60
2023-05-09T10:59:51.836Z,10.93
2023-05-09T11:02:29.595Z,10.93
2023-05-09T11:05:20.434Z,10.60
2023-05-09T11:08:19.454Z,8.80
2023-05-09T11:10:56.056Z,10.17
2023-05-09T11:13:36.692Z,10.47
2023-05-09T11:16:16.558Z,9.43
2023-05-09T11:18:53.361Z,10.83
2023-05-09T11:21:27.585Z,11.30
2023-05-09T11:24:15.743Z,10.03
2023-05-09T11:26:48.712Z,9.53
2023-05-09T11:29:21.169Z,9.93
2023-05-09T11:32:10.445Z,9.37
2023-05-09T11:34:46.185Z,8.90
2023-05-09T11:37:24.290Z,8.60
2023-05-09T11:40:06.291Z,8.27
2023-05-09T11:42:50.490Z,9.50
2023-05-09T11:45:32.529Z,7.60
2023-05-09T11:48:10.130Z,8.10
2023-05-09T11:50:42.647Z,8.30
2023-05-09T11:53:17.930Z,7.30
2023-05-09T11:55:50.553Z,6.63
2023-05-09T11:58:22.929Z,4.77
2023-05-09T12:00:55.298Z,4.73
2023-05-09T12:03:28.205Z,3.93
2023-05-09T12:06:01.167Z,3.37
2023-05-09T12:08:33.569Z,4.80
2023-05-09T12:11:09.972Z,4.23
2023-05-09T12:13:52.716Z,8.03
2023-05-09T12:16:24.922Z,7.80
2023-05-09T12:18:57.266Z,6.43
2023-05-09T12:21:29.672Z,4.73
2023-05-09T12:24:02.287Z,4.90
2023-05-09T12:26:34.511Z,8.53
2023-05-09T12:29:07.227Z,6.13
2023-05-09T12:31:39.601Z,5.77
2023-05-09T12:34:12.597Z,5.07
2023-05-09T12:36:50.781Z,4.60
2023-05-09T12:39:23.223Z,4.10
2023-05-09T12:42:01.564Z,4.60
2023-05-09T12:44:34.991Z,4.40
2023-05-09T12:47:07.857Z,3.50
2023-05-09T12:49:42.988Z,6.03
2023-05-09T12:52:20.611Z,4.70
2023-05-09T12:54:54.174Z,4.67
2023-05-09T12:57:36.249Z,4.70
2023-05-09T13:00:12.274Z,4.53
2023-05-09T13:02:51.191Z,3.90
2023-05-09T13:05:24.467Z,3.70
2023-05-09T13:07:57.645Z,4.43
2023-05-09T13:10:29.965Z,3.93
2023-05-09T13:13:04.641Z,4.30
2023-05-09T13:15:37.313Z,4.00
2023-05-09T13:18:10.860Z,3.93
2023-05-09T13:20:43.601Z,4.00
2023-05-09T13:23:15.740Z,3.93
2023-05-09T13:25:49.045Z,4.03
2023-05-09T13:28:21.097Z,3.80
2023-05-09T13:30:53.252Z,3.97
2023-05-09T13:33:26.582Z,3.60
2023-05-09T13:35:59.004Z,3.67
2023-05-09T13:38:32.289Z,3.63
2023-05-09T13:41:08.852Z,3.57
2023-05-09T13:43:42.696Z,2.70
2023-05-09T13:46:15.073Z,2.60
2023-05-09T13:48:47.913Z,2.90
2023-05-09T13:51:21.844Z,3.07
2023-05-09T13:53:54.617Z,3.10
2023-05-09T13:56:27.184Z,2.73
2023-05-09T13:58:59.400Z,3.10
2023-05-09T14:01:31.585Z,2.50
2023-05-09T14:04:03.943Z,2.50
2023-05-09T14:06:36.592Z,3.23
2023-05-09T14:09:09.498Z,3.20
2023-05-09T14:11:42.959Z,2.90
2023-05-09T14:14:15.508Z,2.97
2023-05-09T14:16:49.520Z,3.10
2023-05-09T14:19:22.219Z,3.00
2023-05-09T14:21:54.772Z,2.60
2023-05-09T14:24:27.192Z,2.83
2023-05-09T14:27:02.236Z,2.80
2023-05-09T14:29:37.632Z,2.70
2023-05-09T14:32:14.796Z,2.83
2023-05-09T14:34:49.630Z,3.00
2023-05-09T14:37:22.096Z,2.63
2023-05-09T14:39:54.309Z,2.67
2023-05-09T14:42:26.789Z,2.60
2023-05-09T14:44:59.401Z,3.00
2023-05-09T14:47:31.842Z,2.43
2023-05-09T14:50:04.817Z,2.97
2023-05-09T14:52:37.722Z,2.50
2023-05-09T14:55:10.362Z,2.63
2023-05-09T14:57:42.975Z,2.53
2023-05-09T15:00:21.338Z,3.00
2023-05-09T15:02:56.442Z,2.67
2023-05-09T15:05:28.731Z,2.80
2023-05-09T15:08:01.104Z,2.53
2023-05-09T15:10:33.744Z,2.33
2023-05-09T15:13:06.262Z,2.17
2023-05-09T15:15:39.521Z,1.70
2023-05-09T15:18:13.390Z,1.60
2023-05-09T15:20:47.674Z,1.97
2023-05-09T15:23:20.345Z,1.50
2023-05-09T15:25:53.004Z,1.60
2023-05-09T15:28:25.445Z,2.00
2023-05-09T15:30:59.983Z,1.67
2023-05-09T15:33:33.518Z,1.83
2023-05-09T15:36:06.962Z,1.60
2023-05-09T15:38:40.729Z,1.50
2023-05-09T15:41:13.252Z,1.80
2023-05-09T15:43:46.356Z,1.90
2023-05-09T15:46:18.948Z,1.80
2023-05-09T15:48:52.128Z,1.50
2023-05-09T15:51:26.103Z,1.67
2023-05-09T15:54:00.757Z,1.70
2023-05-09T15:56:33.049Z,1.93
2023-05-09T15:59:05.322Z,1.90
2023-05-09T16:01:38.156Z,1.93
2023-05-09T16:35:09.853Z,2.30
2023-05-09T16:37:42.953Z,2.50
2023-05-09T16:40:15.986Z,2.20
2023-05-09T16:42:49.876Z,2.10
2023-05-09T16:45:22.020Z,2.20
2023-05-09T16:47:55.739Z,2.67
2023-05-09T16:50:28.912Z,2.20
2023-05-09T16:53:02.023Z,2.20
2023-05-09T16:55:35.698Z,2.37
2023-05-09T16:58:08.353Z,2.10
2023-05-09T17:00:40.664Z,2.40
2023-05-09T17:03:14.469Z,3.00
2023-05-09T17:05:46.607Z,3.13
2023-05-09T17:08:19.324Z,2.40
2023-05-09T17:10:52.203Z,2.50
2023-05-09T17:13:24.659Z,2.70
2023-05-09T17:15:57.941Z,3.53
2023-05-09T17:18:37.744Z,3.60
2023-05-09T17:21:10.820Z,3.00
2023-05-09T17:23:44.527Z,3.00
2023-05-09T17:26:16.982Z,3.43
2023-05-09T17:28:49.980Z,3.93
2023-05-09T17:31:23.116Z,2.90
2023-05-09T17:33:56.289Z,3.10
2023-05-09T17:36:28.874Z,1.90
2023-05-09T17:39:03.106Z,1.50
2023-05-09T17:41:35.858Z,1.80
2023-05-09T17:44:08.387Z,2.10
2023-05-09T17:46:42.185Z,2.30
2023-05-09T17:49:15.364Z,2.03
2023-05-09T17:51:48.315Z,1.97
2023-05-09T17:54:22.467Z,3.97
2023-05-09T17:56:59.225Z,2.40
2023-05-09T17:59:33.478Z,2.70
2023-05-09T18:02:05.713Z,2.23
2023-05-09T18:04:39.770Z,2.37
2023-05-09T18:07:12.428Z,2.50
2023-05-09T18:09:46.205Z,2.57
2023-05-09T18:12:19.276Z,2.70
2023-05-09T18:14:53.387Z,3.13
2023-05-09T18:17:26.791Z,2.63
2023-05-09T18:19:59.994Z,2.53
2023-05-09T18:22:34.049Z,2.37
2023-05-09T18:25:08.999Z,2.30
2023-05-09T18:27:42.717Z,2.40
2023-05-09T18:30:18.278Z,2.07
2023-05-09T18:32:53.925Z,2.20
2023-05-09T18:35:32.256Z,2.10
2023-05-09T18:38:06.122Z,2.23
2023-05-09T18:40:39.645Z,2.30
2023-05-09T18:43:13.564Z,2.43
2023-05-09T18:45:50.468Z,2.23
2023-05-09T18:48:24.262Z,2.60
2023-05-09T18:50:58.612Z,2.40
2023-05-09T18:53:36.497Z,1.90
2023-05-09T18:56:15.566Z,2.90
2023-05-09T18:58:51.441Z,2.40
2023-05-09T19:01:25.822Z,2.77
2023-05-09T19:04:00.421Z,2.43
2023-05-09T19:06:36.287Z,2.23
2023-05-09T19:09:10.812Z,2.50
2023-05-09T19:11:46.472Z,2.80
2023-05-09T19:14:21.466Z,2.90
2023-05-09T19:16:56.228Z,2.65
2023-05-09T19:19:31.005Z,3.03
2023-05-09T19:22:07.077Z,3.30
2023-05-09T19:24:45.990Z,2.93
2023-05-09T19:27:22.950Z,2.57
2023-05-09T19:29:57.798Z,2.53
2023-05-09T19:32:36.311Z,2.60
2023-05-09T19:35:11.921Z,2.70
2023-05-09T19:37:47.062Z,3.10
2023-05-09T19:40:22.905Z,2.30
2023-05-09T19:42:58.700Z,2.33
2023-05-09T19:45:34.424Z,2.47
2023-05-09T19:48:15.634Z,2.77
2023-05-09T19:50:50.065Z,2.80
2023-05-09T19:53:29.563Z,2.83
2023-05-09T19:56:04.586Z,2.60
2023-05-09T19:58:41.280Z,2.50
2023-05-09T20:01:16.960Z,2.85
2023-05-09T20:03:56.535Z,3.03
2023-05-09T20:06:32.023Z,3.17
2023-05-09T20:09:15.359Z,2.92
2023-05-09T20:11:56.028Z,2.78
2023-05-09T20:14:38.534Z,3.05
2023-05-09T20:17:14.255Z,2.80
2023-05-09T20:19:50.018Z,2.90
2023-05-09T20:22:24.361Z,2.95
2023-05-09T20:25:00.210Z,3.60
2023-05-09T20:27:39.638Z,3.65
2023-05-09T20:30:16.917Z,3.30
2023-05-09T20:32:54.629Z,3.13
2023-05-09T20:35:31.850Z,2.63
2023-05-09T20:38:07.317Z,3.00
2023-05-09T20:40:42.726Z,2.50
2023-05-09T20:43:16.798Z,2.60
2023-05-09T20:45:52.721Z,2.70
2023-05-09T20:48:26.798Z,2.90
2023-05-09T20:51:00.922Z,2.95
2023-05-09T20:53:35.470Z,3.40
2023-05-09T20:56:09.797Z,2.70
2023-05-09T20:58:42.910Z,3.20
2023-05-09T21:01:16.325Z,3.05
2023-05-09T21:03:49.461Z,2.90
2023-05-09T21:06:22.413Z,3.00
2023-05-09T21:08:55.042Z,3.05
2023-05-09T21:11:27.775Z,3.00
2023-05-09T21:14:01.378Z,2.67
2023-05-09T21:16:34.144Z,2.45
2023-05-09T21:19:10.558Z,2.92
2023-05-09T21:21:43.547Z,2.90
2023-05-09T21:24:15.995Z,2.60
2023-05-09T21:26:48.660Z,3.00
2023-05-09T21:29:21.291Z,2.42
2023-05-09T21:31:53.854Z,2.40
2023-05-09T21:34:26.092Z,2.83
2023-05-09T21:36:58.846Z,2.45
2023-05-09T21:39:32.502Z,2.50
2023-05-09T21:42:05.673Z,2.53
2023-05-09T21:44:38.054Z,2.60
2023-05-09T21:47:11.846Z,2.00
2023-05-09T21:49:44.261Z,2.13
2023-05-09T21:52:16.540Z,2.20
2023-05-09T21:54:49.305Z,2.30
2023-05-09T21:57:21.490Z,2.38
2023-05-09T21:59:54.353Z,1.83
2023-05-09T22:02:28.984Z,2.10
2023-05-09T22:05:01.353Z,2.00
2023-05-09T22:07:33.423Z,2.00
2023-05-09T22:10:06.329Z,2.20
2023-05-09T22:12:39.066Z,1.95
2023-05-09T22:15:11.329Z,2.15
2023-05-09T22:17:43.972Z,1.95
2023-05-09T22:20:16.757Z,2.15
2023-05-09T22:22:49.345Z,2.30
2023-05-09T22:25:21.498Z,1.80
2023-05-09T22:27:55.115Z,1.73
2023-05-09T22:30:27.229Z,1.60
2023-05-09T22:33:00.285Z,1.80
2023-05-09T22:35:32.534Z,1.70
2023-05-09T22:38:04.694Z,1.70
2023-05-09T22:40:37.279Z,1.58
2023-05-09T22:43:10.966Z,1.98
2023-05-09T22:45:43.948Z,1.98
2023-05-09T22:48:16.345Z,2.30
2023-05-09T22:50:48.715Z,2.13
2023-05-09T22:53:20.921Z,2.00
2023-05-09T22:55:54.856Z,2.20
2023-05-09T22:58:27.238Z,2.28
2023-05-09T23:00:59.580Z,2.20
2023-05-09T23:03:31.988Z,2.53
2023-05-09T23:06:04.448Z,2.33
2023-05-09T23:08:36.955Z,2.30
2023-05-09T23:11:09.106Z,1.88
2023-05-09T23:13:41.240Z,2.10
2023-05-09T23:33:05.378Z,1.70
2023-05-09T23:35:37.400Z,1.70
2023-05-09T23:38:09.534Z,1.50
2023-05-09T23:40:46.110Z,1.80
2023-05-09T23:43:18.286Z,1.73
2023-05-09T23:45:50.424Z,1.60
2023-05-09T23:48:23.634Z,1.42
2023-05-09T23:50:55.778Z,1.40
2023-05-09T23:53:27.822Z,1.38
2023-05-09T23:56:00.150Z,1.10
2023-05-09T23:58:32.846Z,1.17
